createdAt,value
2023-08-28T00:02:14.435Z,99694.00
2023-08-28T00:04:42.097Z,99695.00
2023-08-28T00:07:09.836Z,99693.00
2023-08-28T00:09:38.178Z,99690.00
2023-08-28T00:12:06.140Z,99695.00
2023-08-28T00:14:33.879Z,99682.00
2023-08-28T00:17:01.571Z,99686.00
2023-08-28T00:19:29.303Z,99691.00
2023-08-28T00:21:56.835Z,99699.00
2023-08-28T00:24:24.574Z,99695.00
2023-08-28T00:26:52.367Z,99684.00
2023-08-28T00:29:19.773Z,99691.00
2023-08-28T00:31:47.285Z,99696.00
2023-08-28T00:34:16.062Z,99692.00
2023-08-28T00:36:44.345Z,99693.00
2023-08-28T00:39:12.185Z,99694.00
2023-08-28T00:41:40.645Z,99692.00
2023-08-28T00:44:08.231Z,99699.00
2023-08-28T00:46:35.940Z,99699.00
2023-08-28T00:49:04.006Z,99692.00
2023-08-28T00:51:31.943Z,99694.00
2023-08-28T00:53:59.737Z,99690.00
2023-08-28T00:56:27.335Z,99682.00
2023-08-28T00:58:55.133Z,99685.00
2023-08-28T01:01:23.090Z,99682.00
2023-08-28T01:03:50.838Z,99689.00
2023-08-28T01:06:46.912Z,99698.00
2023-08-28T01:10:05.725Z,99704.00
2023-08-28T01:12:57.435Z,99702.00
2023-08-28T01:15:26.474Z,99694.00
2023-08-28T01:18:04.142Z,99692.00
2023-08-28T01:20:34.617Z,99694.00
2023-08-28T01:23:29.691Z,99703.00
2023-08-28T01:25:57.902Z,99709.00
2023-08-28T01:28:27.446Z,99716.00
2023-08-28T01:30:55.120Z,99702.00
2023-08-28T01:33:22.850Z,99710.00
2023-08-28T01:36:21.514Z,99714.00
2023-08-28T01:39:03.263Z,99713.00
2023-08-28T01:41:32.056Z,99710.00
2023-08-28T01:44:05.493Z,99707.00
2023-08-28T01:46:35.188Z,99708.00
2023-08-28T01:49:06.517Z,99700.00
2023-08-28T01:51:34.064Z,99706.00
2023-08-28T01:54:01.603Z,99715.00
2023-08-28T01:56:29.023Z,99717.00
2023-08-28T01:58:58.876Z,99713.00
2023-08-28T02:01:28.312Z,99708.00
2023-08-28T02:03:56.267Z,99701.00
2023-08-28T02:06:23.952Z,99699.00
2023-08-28T02:08:51.817Z,99695.00
2023-08-28T02:11:19.221Z,99695.00
2023-08-28T02:13:46.970Z,99689.00
2023-08-28T02:16:14.675Z,99691.00
2023-08-28T02:18:42.090Z,99686.00
2023-08-28T02:21:09.873Z,99691.00
2023-08-28T02:23:37.572Z,99697.00
2023-08-28T02:26:04.919Z,99689.00
2023-08-28T02:28:32.465Z,99697.00
2023-08-28T02:31:01.273Z,99694.00
2023-08-28T02:33:29.199Z,99698.00
2023-08-28T02:35:56.786Z,99689.00
2023-08-28T02:38:24.310Z,99689.00
2023-08-28T02:40:52.359Z,99698.00
2023-08-28T02:43:19.960Z,99712.00
2023-08-28T02:45:47.509Z,99710.00
2023-08-28T02:48:15.207Z,99706.00
2023-08-28T02:50:42.731Z,99703.00
2023-08-28T02:53:10.292Z,99713.00
2023-08-28T02:55:43.173Z,99732.00
2023-08-28T02:58:11.860Z,99735.00
2023-08-28T03:00:43.354Z,99742.00
2023-08-28T03:03:11.061Z,99739.00
2023-08-28T03:05:38.628Z,99742.00
2023-08-28T03:08:06.256Z,99739.00
2023-08-28T03:10:36.230Z,99743.00
2023-08-28T03:13:04.682Z,99761.00
2023-08-28T03:15:35.392Z,99769.00
2023-08-28T03:18:02.914Z,99777.00
2023-08-28T03:20:30.621Z,99777.00
2023-08-28T03:22:58.195Z,99774.00
2023-08-28T03:25:25.779Z,99766.00
2023-08-28T03:27:53.161Z,99768.00
2023-08-28T03:30:21.495Z,99756.00
2023-08-28T03:32:49.197Z,99746.00
2023-08-28T03:35:16.865Z,99742.00
2023-08-28T03:37:45.578Z,99735.00
2023-08-28T03:40:13.544Z,99729.00
2023-08-28T03:42:40.967Z,99724.00
2023-08-28T03:45:09.106Z,99728.00
2023-08-28T03:47:36.693Z,99728.00
2023-08-28T03:50:04.419Z,99727.00
2023-08-28T03:52:31.696Z,99727.00
2023-08-28T03:54:59.067Z,99731.00
2023-08-28T03:57:26.620Z,99729.00
2023-08-28T03:59:54.037Z,99724.00
2023-08-28T04:05:12.844Z,99725.00
2023-08-28T04:07:41.757Z,99719.00
2023-08-28T04:10:09.949Z,99723.00
2023-08-28T04:12:38.359Z,99722.00
2023-08-28T04:15:09.399Z,99712.00
2023-08-28T04:17:37.399Z,99723.00
2023-08-28T04:20:14.363Z,99715.00
2023-08-28T04:22:45.939Z,99722.00
2023-08-28T04:25:14.937Z,99722.00
2023-08-28T04:27:43.054Z,99718.00
2023-08-28T04:30:11.768Z,99715.00
2023-08-28T04:32:39.279Z,99712.00
2023-08-28T04:35:08.385Z,99714.00
2023-08-28T04:37:36.324Z,99709.00
2023-08-28T04:40:04.739Z,99703.00
2023-08-28T04:42:32.314Z,99708.00
2023-08-28T04:45:00.157Z,99707.00
2023-08-28T04:47:27.845Z,99710.00
2023-08-28T04:49:55.445Z,99717.00
2023-08-28T04:52:23.973Z,99717.00
2023-08-28T04:54:51.504Z,99725.00
2023-08-28T04:57:19.281Z,99739.00
2023-08-28T04:59:47.272Z,99730.00
2023-08-28T05:02:14.661Z,99733.00
2023-08-28T05:04:42.387Z,99735.00
2023-08-28T05:07:10.020Z,99739.00
2023-08-28T05:09:37.581Z,99732.00
2023-08-28T05:12:05.491Z,99735.00
2023-08-28T05:14:33.158Z,99734.00
2023-08-28T05:17:00.756Z,99730.00
2023-08-28T05:19:28.151Z,99732.00
2023-08-28T05:21:55.633Z,99726.00
2023-08-28T05:24:23.300Z,99720.00
2023-08-28T05:26:50.646Z,99724.00
2023-08-28T05:29:18.925Z,99720.00
2023-08-28T05:31:47.014Z,99711.00
2023-08-28T05:34:14.687Z,99718.00
2023-08-28T05:36:42.454Z,99708.00
2023-08-28T05:39:09.778Z,99700.00
2023-08-28T05:41:37.310Z,99702.00
2023-08-28T05:44:04.890Z,99699.00
2023-08-28T05:46:32.668Z,99708.00
2023-08-28T05:49:00.683Z,99712.00
2023-08-28T05:51:28.174Z,99716.00
2023-08-28T05:53:55.553Z,99715.00
2023-08-28T05:56:22.977Z,99712.00
2023-08-28T05:58:50.417Z,99718.00
2023-08-28T06:01:17.816Z,99707.00
2023-08-28T06:03:45.489Z,99710.00
2023-08-28T06:06:13.722Z,99710.00
2023-08-28T06:08:41.092Z,99705.00
2023-08-28T06:11:08.452Z,99701.00
2023-08-28T06:13:36.100Z,99701.00
2023-08-28T06:16:03.586Z,99696.00
2023-08-28T06:18:30.967Z,99691.00
2023-08-28T06:20:58.697Z,99693.00
2023-08-28T06:23:26.157Z,99691.00
2023-08-28T06:25:53.616Z,99690.00
2023-08-28T06:28:21.135Z,99694.00
2023-08-28T06:30:51.981Z,99697.00
2023-08-28T06:33:19.491Z,99699.00
2023-08-28T06:35:47.201Z,99696.00
2023-08-28T06:38:14.881Z,99706.00
2023-08-28T06:40:42.400Z,99721.00
2023-08-28T06:43:09.755Z,99714.00
2023-08-28T06:45:37.252Z,99721.00
2023-08-28T06:48:05.379Z,99722.00
2023-08-28T06:50:36.212Z,99726.00
2023-08-28T06:53:04.349Z,99734.00
2023-08-28T06:55:34.457Z,99739.00
2023-08-28T06:58:02.522Z,99750.00
2023-08-28T07:00:30.029Z,99751.00
2023-08-28T07:02:57.616Z,99749.00
2023-08-28T07:05:25.037Z,99746.00
2023-08-28T07:07:52.481Z,99742.00
2023-08-28T07:10:20.059Z,99750.00
2023-08-28T07:12:47.391Z,99749.00
2023-08-28T07:15:20.844Z,99750.00
2023-08-28T07:17:48.290Z,99756.00
2023-08-28T07:20:16.397Z,99766.00
2023-08-28T07:22:44.079Z,99758.00
2023-08-28T07:25:12.133Z,99757.00
2023-08-28T07:27:39.912Z,99762.00
2023-08-28T07:30:08.593Z,99769.00
2023-08-28T07:32:38.935Z,99771.00
2023-08-28T07:35:07.654Z,99762.00
2023-08-28T07:37:36.392Z,99760.00
2023-08-28T07:40:07.545Z,99766.00
2023-08-28T07:42:35.710Z,99771.00
2023-08-28T07:45:05.624Z,99765.00
2023-08-28T07:47:33.282Z,99754.00
2023-08-28T07:50:01.018Z,99765.00
2023-08-28T07:52:28.977Z,99773.00
2023-08-28T07:54:56.185Z,99770.00
2023-08-28T07:57:25.003Z,99771.00
2023-08-28T07:59:58.696Z,99764.00
2023-08-28T08:02:26.185Z,99763.00
2023-08-28T08:04:53.600Z,99766.00
2023-08-28T08:07:21.247Z,99776.00
2023-08-28T08:09:49.083Z,99777.00
2023-08-28T08:12:16.691Z,99776.00
2023-08-28T08:14:44.305Z,99773.00
2023-08-28T08:17:11.909Z,99771.00
2023-08-28T08:19:39.726Z,99765.00
2023-08-28T08:22:08.279Z,99755.00
2023-08-28T08:24:35.935Z,99749.00
2023-08-28T08:27:03.461Z,99758.00
2023-08-28T08:29:30.907Z,99756.00
2023-08-28T08:31:58.548Z,99751.00
2023-08-28T08:34:25.935Z,99775.00
2023-08-28T08:36:53.914Z,99779.00
2023-08-28T08:39:23.982Z,99771.00
2023-08-28T08:41:51.563Z,99778.00
2023-08-28T08:44:19.654Z,99790.00
2023-08-28T08:46:48.443Z,99782.00
2023-08-28T08:49:24.622Z,99794.00
2023-08-28T08:51:54.005Z,99789.00
2023-08-28T08:54:27.980Z,99788.00
2023-08-28T08:57:01.758Z,99783.00
2023-08-28T08:59:29.801Z,99780.00
2023-08-28T09:02:02.110Z,99784.00
2023-08-28T09:04:29.523Z,99781.00
2023-08-28T09:06:57.692Z,99786.00
2023-08-28T09:09:25.231Z,99787.00
2023-08-28T09:11:52.583Z,99787.00
2023-08-28T09:14:20.011Z,99778.00
2023-08-28T09:16:51.394Z,99781.00
2023-08-28T09:19:19.125Z,99777.00
2023-08-28T09:21:49.878Z,99767.00
2023-08-28T09:24:24.093Z,99767.00
2023-08-28T09:26:55.841Z,99774.00
2023-08-28T09:29:25.377Z,99782.00
2023-08-28T09:32:03.706Z,99784.00
2023-08-28T09:34:42.793Z,99780.00
2023-08-28T09:37:14.123Z,99776.00
2023-08-28T09:39:43.039Z,99783.00
2023-08-28T09:42:11.468Z,99779.00
2023-08-28T09:44:40.193Z,99784.00
2023-08-28T09:47:10.548Z,99774.00
2023-08-28T09:49:45.533Z,99783.00
2023-08-28T09:52:13.962Z,99791.00
2023-08-28T09:54:44.566Z,99794.00
2023-08-28T09:57:20.789Z,99790.00
2023-08-28T09:59:48.342Z,99788.00
2023-08-28T10:02:22.542Z,99777.00
2023-08-28T10:04:54.390Z,99776.00
2023-08-28T10:07:25.417Z,99769.00
2023-08-28T10:09:55.102Z,99777.00
2023-08-28T10:12:24.203Z,99776.00
2023-08-28T10:14:55.256Z,99767.00
2023-08-28T10:17:28.275Z,99758.00
2023-08-28T10:20:22.527Z,99756.00
2023-08-28T10:22:52.066Z,99743.00
2023-08-28T10:25:20.268Z,99756.00
2023-08-28T10:27:48.850Z,99757.00
2023-08-28T10:30:17.263Z,99757.00
2023-08-28T10:32:46.350Z,99746.00
2023-08-28T10:35:15.059Z,99756.00
2023-08-28T10:37:43.625Z,99747.00
2023-08-28T10:40:14.433Z,99747.00
2023-08-28T10:42:42.969Z,99750.00
2023-08-28T10:45:14.054Z,99747.00
2023-08-28T10:47:50.223Z,99748.00
2023-08-28T10:50:38.989Z,99748.00
2023-08-28T10:53:08.699Z,99763.00
2023-08-28T10:55:37.137Z,99769.00
2023-08-28T10:58:05.821Z,99767.00
2023-08-28T11:00:37.002Z,99764.00
2023-08-28T11:03:19.953Z,99773.00
2023-08-28T11:05:48.339Z,99755.00
2023-08-28T11:08:19.194Z,99767.00
2023-08-28T11:11:16.800Z,99779.00
2023-08-28T11:14:03.176Z,99795.00
2023-08-28T11:16:31.311Z,99803.00
2023-08-28T11:18:59.291Z,99803.00
2023-08-28T11:21:27.236Z,99808.00
2023-08-28T11:23:55.805Z,99825.00
2023-08-28T11:26:23.667Z,99823.00
2023-08-28T11:28:52.332Z,99821.00
2023-08-28T11:31:23.444Z,99811.00
2023-08-28T11:33:51.858Z,99813.00
2023-08-28T11:36:20.445Z,99807.00
2023-08-28T11:38:49.498Z,99811.00
2023-08-28T11:41:17.859Z,99806.00
2023-08-28T11:43:46.036Z,99806.00
2023-08-28T11:46:14.800Z,99802.00
2023-08-28T11:48:46.300Z,99795.00
2023-08-28T11:51:14.676Z,99786.00
2023-08-28T11:53:44.510Z,99790.00
2023-08-28T11:56:14.608Z,99786.00
2023-08-28T11:58:53.212Z,99788.00
2023-08-28T12:01:21.522Z,99786.00
2023-08-28T12:03:52.250Z,99786.00
2023-08-28T12:06:21.581Z,99782.00
2023-08-28T12:08:49.382Z,99786.00
2023-08-28T12:11:19.788Z,99779.00
2023-08-28T12:13:47.363Z,99771.00
2023-08-28T12:16:19.373Z,99778.00
2023-08-28T12:18:52.020Z,99766.00
2023-08-28T12:21:33.879Z,99761.00
2023-08-28T12:24:01.591Z,99762.00
2023-08-28T12:26:31.682Z,99758.00
2023-08-28T12:29:00.461Z,99760.00
2023-08-28T12:31:37.139Z,99744.00
2023-08-28T12:34:09.791Z,99747.00
2023-08-28T12:36:39.199Z,99748.00
2023-08-28T12:39:10.289Z,99745.00
2023-08-28T12:41:50.480Z,99741.00
2023-08-28T12:44:18.332Z,99739.00
2023-08-28T12:46:46.095Z,99738.00
2023-08-28T12:49:14.794Z,99731.00
2023-08-28T12:51:43.310Z,99724.00
2023-08-28T12:54:14.366Z,99720.00
2023-08-28T12:56:41.972Z,99727.00
2023-08-28T12:59:09.611Z,99715.00
2023-08-28T13:01:37.364Z,99714.00
2023-08-28T13:04:06.819Z,99710.00
2023-08-28T13:06:35.179Z,99713.00
2023-08-28T13:09:05.155Z,99716.00
2023-08-28T13:11:34.028Z,99704.00
2023-08-28T13:14:01.912Z,99707.00
2023-08-28T13:16:31.161Z,99697.00
2023-08-28T13:19:05.244Z,99692.00
2023-08-28T13:21:32.793Z,99691.00
2023-08-28T13:24:00.825Z,99695.00
2023-08-28T13:26:28.490Z,99699.00
2023-08-28T13:28:57.013Z,99702.00
2023-08-28T13:31:24.693Z,99690.00
2023-08-28T13:33:52.293Z,99708.00
2023-08-28T13:36:20.579Z,99713.00
2023-08-28T13:38:48.281Z,99710.00
2023-08-28T13:41:15.743Z,99705.00
2023-08-28T13:43:43.197Z,99706.00
2023-08-28T13:46:10.772Z,99712.00
2023-08-28T13:48:39.206Z,99707.00
2023-08-28T13:51:08.571Z,99708.00
2023-08-28T13:53:35.957Z,99690.00
2023-08-28T13:56:03.869Z,99684.00
2023-08-28T13:58:32.778Z,99670.00
2023-08-28T14:01:04.392Z,99687.00
2023-08-28T14:03:33.502Z,99690.00
2023-08-28T14:06:06.126Z,99699.00
2023-08-28T14:08:34.618Z,99705.00
2023-08-28T14:11:09.980Z,99702.00
2023-08-28T14:13:38.667Z,99714.00
2023-08-28T14:16:08.104Z,99705.00
2023-08-28T14:18:36.326Z,99700.00
2023-08-28T14:21:05.530Z,99701.00
2023-08-28T14:23:33.760Z,99696.00
2023-08-28T14:26:08.151Z,99706.00
2023-08-28T14:28:36.103Z,99708.00
2023-08-28T14:31:04.343Z,99725.00
2023-08-28T14:33:33.115Z,99718.00
2023-08-28T14:36:01.072Z,99719.00
2023-08-28T14:38:32.452Z,99716.00
2023-08-28T14:41:03.345Z,99708.00
2023-08-28T14:43:30.820Z,99700.00
2023-08-28T14:45:58.488Z,99704.00
2023-08-28T14:48:26.570Z,99705.00
2023-08-28T14:50:56.553Z,99712.00
2023-08-28T14:53:27.351Z,99733.00
2023-08-28T14:55:58.709Z,99734.00
2023-08-28T14:58:26.233Z,99738.00
2023-08-28T15:00:56.264Z,99738.00
2023-08-28T15:03:26.093Z,99735.00
2023-08-28T15:05:54.338Z,99717.00
2023-08-28T15:08:23.660Z,99727.00
2023-08-28T15:10:52.001Z,99730.00
2023-08-28T15:13:22.005Z,99732.00
2023-08-28T15:15:50.663Z,99715.00
2023-08-28T15:18:21.683Z,99714.00
2023-08-28T15:20:52.848Z,99710.00
2023-08-28T15:23:21.124Z,99710.00
2023-08-28T15:25:49.488Z,99711.00
2023-08-28T15:28:18.263Z,99709.00
2023-08-28T15:30:46.109Z,99702.00
2023-08-28T15:33:14.509Z,99691.00
2023-08-28T15:35:42.163Z,99687.00
2023-08-28T15:38:09.743Z,99698.00
2023-08-28T15:40:37.347Z,99707.00
2023-08-28T15:43:05.534Z,99693.00
2023-08-28T15:45:33.556Z,99703.00
2023-08-28T15:48:03.558Z,99701.00
2023-08-28T15:50:33.964Z,99712.00
2023-08-28T15:53:01.790Z,99715.00
2023-08-28T15:55:29.529Z,99723.00
2023-08-28T15:57:57.132Z,99721.00
2023-08-28T16:00:24.795Z,99716.00
2023-08-28T16:02:52.749Z,99728.00
2023-08-28T16:05:24.282Z,99747.00
2023-08-28T16:07:54.777Z,99747.00
2023-08-28T16:10:22.465Z,99753.00
2023-08-28T16:12:50.316Z,99756.00
2023-08-28T16:15:18.412Z,99757.00
2023-08-28T16:17:46.063Z,99767.00
2023-08-28T16:20:13.662Z,99771.00
2023-08-28T16:22:41.154Z,99771.00
2023-08-28T16:25:11.246Z,99755.00
2023-08-28T16:27:42.991Z,99754.00
2023-08-28T16:30:12.913Z,99748.00
2023-08-28T16:32:40.408Z,99753.00
2023-08-28T16:35:08.656Z,99764.00
2023-08-28T16:37:36.289Z,99760.00
2023-08-28T16:40:08.306Z,99758.00
2023-08-28T16:42:35.824Z,99753.00
2023-08-28T16:45:03.231Z,99752.00
2023-08-28T16:47:30.690Z,99759.00
2023-08-28T16:49:59.342Z,99758.00
2023-08-28T16:52:27.123Z,99762.00
2023-08-28T16:54:54.879Z,99762.00
2023-08-28T16:57:22.447Z,99764.00
2023-08-28T16:59:50.202Z,99765.00
2023-08-28T17:02:17.748Z,99763.00
2023-08-28T17:04:46.032Z,99759.00
2023-08-28T17:07:13.810Z,99756.00
2023-08-28T17:09:41.359Z,99751.00
2023-08-28T17:12:09.432Z,99752.00
2023-08-28T17:14:36.941Z,99755.00
2023-08-28T17:17:05.353Z,99756.00
2023-08-28T17:19:33.206Z,99748.00
2023-08-28T17:22:00.738Z,99743.00
2023-08-28T17:24:28.501Z,99744.00
2023-08-28T17:26:56.403Z,99736.00
2023-08-28T17:29:24.012Z,99732.00
2023-08-28T17:31:53.077Z,99724.00
2023-08-28T17:34:20.549Z,99723.00
2023-08-28T17:36:48.001Z,99727.00
2023-08-28T17:39:22.956Z,99735.00
2023-08-28T17:41:50.493Z,99743.00
2023-08-28T17:44:18.366Z,99733.00
2023-08-28T17:46:46.487Z,99731.00
2023-08-28T17:49:14.444Z,99733.00
2023-08-28T17:51:42.472Z,99733.00
2023-08-28T17:54:10.181Z,99733.00
2023-08-28T17:56:38.071Z,99731.00
2023-08-28T17:59:05.927Z,99720.00
2023-08-28T18:01:34.136Z,99716.00
2023-08-28T18:04:02.046Z,99717.00
2023-08-28T18:06:31.342Z,99715.00
2023-08-28T18:08:59.244Z,99711.00
2023-08-28T18:11:26.785Z,99716.00
2023-08-28T18:13:54.393Z,99722.00
2023-08-28T18:16:24.672Z,99721.00
2023-08-28T18:18:53.707Z,99707.00
2023-08-28T18:21:21.604Z,99702.00
2023-08-28T18:23:52.553Z,99712.00
2023-08-28T18:26:23.031Z,99706.00
2023-08-28T18:28:52.120Z,99703.00
2023-08-28T18:31:19.703Z,99710.00
2023-08-28T18:33:47.412Z,99720.00
2023-08-28T18:36:14.778Z,99728.00
2023-08-28T18:38:44.930Z,99731.00
2023-08-28T18:41:12.719Z,99740.00
2023-08-28T18:43:40.350Z,99738.00
2023-08-28T18:46:08.426Z,99746.00
2023-08-28T18:48:35.970Z,99749.00
2023-08-28T18:51:04.547Z,99753.00
2023-08-28T18:53:32.141Z,99759.00
2023-08-28T18:55:59.717Z,99760.00
2023-08-28T18:58:27.949Z,99768.00
2023-08-28T19:00:59.288Z,99761.00
2023-08-28T19:03:27.533Z,99759.00
2023-08-28T19:05:55.251Z,99758.00
2023-08-28T19:08:22.735Z,99769.00
2023-08-28T19:10:50.271Z,99771.00
2023-08-28T19:13:18.436Z,99769.00
2023-08-28T19:15:49.617Z,99767.00
2023-08-28T19:18:18.665Z,99772.00
2023-08-28T19:21:01.166Z,99767.00
2023-08-28T19:23:29.933Z,99780.00
2023-08-28T19:25:57.599Z,99775.00
2023-08-28T19:28:26.303Z,99763.00
2023-08-28T19:30:53.782Z,99768.00
2023-08-28T19:33:21.185Z,99757.00
2023-08-28T19:35:50.410Z,99763.00
2023-08-28T19:38:19.767Z,99765.00
2023-08-28T19:40:47.266Z,99761.00
2023-08-28T19:43:15.057Z,99755.00
2023-08-28T19:45:42.800Z,99760.00
2023-08-28T19:48:10.809Z,99754.00
2023-08-28T19:50:38.309Z,99765.00
2023-08-28T19:53:07.824Z,99760.00
2023-08-28T19:55:36.138Z,99764.00
2023-08-28T19:58:04.604Z,99763.00
2023-08-28T20:00:32.632Z,99761.00
2023-08-28T20:03:00.807Z,99771.00
2023-08-28T20:05:28.246Z,99768.00
2023-08-28T20:07:55.874Z,99769.00
2023-08-28T20:10:23.493Z,99773.00
2023-08-28T20:12:51.091Z,99776.00
2023-08-28T20:15:19.892Z,99783.00
2023-08-28T20:17:47.435Z,99782.00
2023-08-28T20:20:14.745Z,99778.00
2023-08-28T20:22:43.035Z,99777.00
2023-08-28T20:25:13.827Z,99770.00
2023-08-28T20:27:41.271Z,99760.00
2023-08-28T20:30:10.766Z,99751.00
2023-08-28T20:32:38.736Z,99754.00
2023-08-28T20:35:07.038Z,99749.00
2023-08-28T20:37:34.756Z,99758.00
2023-08-28T20:40:05.485Z,99747.00
2023-08-28T20:42:35.298Z,99757.00
2023-08-28T20:45:04.140Z,99758.00
2023-08-28T20:47:37.153Z,99759.00
2023-08-28T20:50:12.942Z,99760.00
2023-08-28T20:52:40.428Z,99759.00
2023-08-28T20:55:08.902Z,99767.00
2023-08-28T20:57:36.743Z,99763.00
2023-08-28T21:00:06.366Z,99757.00
2023-08-28T21:02:34.010Z,99767.00
2023-08-28T21:05:01.627Z,99757.00
2023-08-28T21:07:29.244Z,99758.00
2023-08-28T21:09:56.880Z,99752.00
2023-08-28T21:12:24.359Z,99749.00
2023-08-28T21:14:51.856Z,99755.00
2023-08-28T21:17:19.426Z,99744.00
2023-08-28T21:19:47.170Z,99747.00
2023-08-28T21:22:14.637Z,99751.00
2023-08-28T21:24:42.366Z,99764.00
2023-08-28T21:27:09.794Z,99754.00
2023-08-28T21:29:37.378Z,99755.00
2023-08-28T21:32:06.025Z,99760.00
2023-08-28T21:34:33.613Z,99763.00
2023-08-28T21:37:01.130Z,99771.00
2023-08-28T21:39:28.943Z,99770.00
2023-08-28T21:41:58.938Z,99761.00
2023-08-28T21:44:27.362Z,99753.00
2023-08-28T21:46:54.928Z,99747.00
2023-08-28T21:49:22.469Z,99755.00
2023-08-28T21:51:50.128Z,99759.00
2023-08-28T21:54:19.605Z,99762.00
2023-08-28T21:56:47.107Z,99749.00
2023-08-28T21:59:14.447Z,99745.00
2023-08-28T22:01:41.862Z,99741.00
2023-08-28T22:04:09.391Z,99744.00
2023-08-28T22:06:36.895Z,99735.00
2023-08-28T22:09:04.415Z,99728.00
2023-08-28T22:11:32.674Z,99719.00
2023-08-28T22:14:03.098Z,99735.00
2023-08-28T22:16:30.558Z,99727.00
2023-08-28T22:18:58.123Z,99720.00
2023-08-28T22:21:25.603Z,99722.00
2023-08-28T22:23:53.290Z,99727.00
2023-08-28T22:26:21.087Z,99729.00
2023-08-28T22:28:48.628Z,99731.00
2023-08-28T22:31:16.358Z,99740.00
2023-08-28T22:33:43.702Z,99747.00
2023-08-28T22:36:11.047Z,99749.00
2023-08-28T22:38:38.677Z,99753.00
2023-08-28T22:41:06.407Z,99751.00
2023-08-28T22:43:34.227Z,99749.00
2023-08-28T22:46:01.623Z,99748.00
2023-08-28T22:48:29.186Z,99747.00
2023-08-28T22:50:56.594Z,99748.00
2023-08-28T22:53:24.048Z,99753.00
2023-08-28T22:55:54.876Z,99752.00
2023-08-28T22:58:22.313Z,99754.00
2023-08-28T23:00:53.163Z,99764.00
2023-08-28T23:03:20.824Z,99745.00
2023-08-28T23:05:48.662Z,99736.00
2023-08-28T23:08:16.022Z,99749.00
2023-08-28T23:10:43.653Z,99736.00
2023-08-28T23:13:11.558Z,99735.00
2023-08-28T23:15:39.011Z,99728.00
2023-08-28T23:18:07.640Z,99733.00
2023-08-28T23:20:35.481Z,99719.00
2023-08-28T23:23:02.857Z,99710.00
2023-08-28T23:25:30.385Z,99707.00
2023-08-28T23:27:58.828Z,99703.00
2023-08-28T23:30:26.226Z,99694.00
2023-08-28T23:32:53.747Z,99705.00
2023-08-28T23:35:21.976Z,99706.00
2023-08-28T23:37:49.655Z,99705.00
2023-08-28T23:40:19.894Z,99692.00
2023-08-28T23:42:47.582Z,99701.00
2023-08-28T23:45:15.290Z,99694.00
2023-08-28T23:47:42.752Z,99682.00
2023-08-28T23:50:10.441Z,99684.00
2023-08-28T23:52:38.516Z,99679.00
2023-08-28T23:55:06.875Z,99676.00
2023-08-28T23:57:34.332Z,99674.00
